Time;durP1;ratioP1;P1;durP2;ratioP2;P2;SDS_P1;SDS_P2;PMS_P1;PMS_P2;Temp;Humidity;BMP_temperature;BMP_pressure;BME280_temperature;BME280_humidity;BME280_pressure;Samples;Min_cycle;Max_cycle;Signal;HPM_P1;HPM_P2
2022/01/21 00:00:06;;;;;;;9.45;3.80;;;3.20;99.90;;;;;;5072861;28;20274;-74
2022/01/21 00:02:52;;;;;;;7.45;3.70;;;3.20;99.90;;;;;;5074470;28;20200;-73
2022/01/21 00:05:40;;;;;;;14.15;5.20;;;3.20;99.90;;;;;;5073900;28;20311;-72
2022/01/21 00:08:26;;;;;;;10.23;3.40;;;3.10;99.90;;;;;;5077834;28;20220;-73
2022/01/21 00:11:14;;;;;;;18.80;4.90;;;3.20;99.90;;;;;;5072220;28;20270;-73
2022/01/21 00:14:00;;;;;;;12.70;4.10;;;3.20;99.90;;;;;;5069645;28;20224;-73
2022/01/21 00:16:46;;;;;;;12.63;4.80;;;3.10;99.90;;;;;;5070421;28;20208;-73
2022/01/21 00:19:37;;;;;;;12.18;4.22;;;3.20;99.90;;;;;;5067148;28;20199;-73
2022/01/21 00:31:34;;;;;;;15.88;4.50;;;3.30;99.90;;;;;;5069178;28;20196;-73
2022/01/21 00:34:20;;;;;;;12.73;4.47;;;3.30;99.90;;;;;;5073510;28;20220;-73
2022/01/21 00:37:06;;;;;;;9.43;3.35;;;3.30;99.90;;;;;;5067750;28;20223;-74
2022/01/21 00:39:56;;;;;;;11.50;3.95;;;3.40;99.90;;;;;;5073356;28;20216;-74
2022/01/21 00:45:48;;;;;;;11.38;3.72;;;3.40;99.90;;;;;;5068122;28;20229;-73
2022/01/21 00:48:34;;;;;;;11.55;4.00;;;3.40;99.90;;;;;;5072337;28;20566;-73
2022/01/21 00:51:20;;;;;;;5.80;3.05;;;3.40;99.90;;;;;;5062234;28;20601;-73
2022/01/21 00:54:06;;;;;;;9.55;3.80;;;3.40;99.90;;;;;;5067813;28;20227;-72
2022/01/21 00:56:53;;;;;;;14.90;3.95;;;3.40;99.90;;;;;;5065036;28;20606;-73
2022/01/21 00:59:39;;;;;;;10.02;3.85;;;3.40;99.90;;;;;;5068071;28;20235;-73
2022/01/21 01:02:24;;;;;;;14.00;4.18;;;3.30;99.90;;;;;;5072783;28;20776;-73
2022/01/21 01:05:12;;;;;;;7.30;3.45;;;3.30;99.90;;;;;;5071033;28;20343;-71
2022/01/21 01:07:59;;;;;;;11.02;3.30;;;3.30;99.90;;;;;;5068631;28;20208;-73
2022/01/21 01:10:59;;;;;;;15.25;3.25;;;3.20;99.90;;;;;;5072097;28;20235;-74
2022/01/21 01:19:57;;;;;;;13.68;3.90;;;3.20;99.90;;;;;;5072967;28;20288;-73
2022/01/21 01:22:51;;;;;;;9.88;3.97;;;3.20;99.90;;;;;;5069455;28;20869;-73
2022/01/21 01:28:41;;;;;;;12.82;4.78;;;3.10;99.90;;;;;;5071892;28;20204;-73
2022/01/21 01:31:28;;;;;;;13.23;3.25;;;3.00;99.90;;;;;;5065066;28;20723;-73
2022/01/21 01:34:14;;;;;;;14.82;5.82;;;2.90;99.90;;;;;;5071599;28;20441;-73
2022/01/21 01:37:06;;;;;;;14.80;3.75;;;2.90;99.90;;;;;;5068007;28;20692;-73
2022/01/21 01:40:00;;;;;;;9.02;4.80;;;2.80;99.90;;;;;;5069620;28;20290;-73
2022/01/21 01:43:06;;;;;;;11.98;3.60;;;2.80;99.90;;;;;;5067588;28;20693;-74
2022/01/21 01:52:00;;;;;;;14.85;4.47;;;2.60;99.90;;;;;;5068363;28;20208;-73
2022/01/21 01:54:48;;;;;;;16.40;4.88;;;2.60;99.90;;;;;;5065021;28;20235;-72
2022/01/21 01:57:34;;;;;;;15.70;5.45;;;2.60;99.90;;;;;;5063033;28;20216;-72
2022/01/21 02:00:20;;;;;;;10.20;4.57;;;2.60;99.90;;;;;;5068847;28;20204;-73
2022/01/21 02:03:06;;;;;;;12.10;4.32;;;2.60;99.90;;;;;;5071675;28;20298;-74
2022/01/21 02:05:53;;;;;;;14.43;4.50;;;2.50;99.90;;;;;;5063651;28;20208;-74
2022/01/21 02:08:39;;;;;;;22.95;5.32;;;2.50;99.90;;;;;;5066433;28;20200;-73
2022/01/21 02:11:25;;;;;;;8.40;3.60;;;2.50;99.90;;;;;;5064957;28;20204;-73
2022/01/21 02:14:15;;;;;;;14.68;4.78;;;2.50;99.90;;;;;;5067954;28;20251;-72
2022/01/21 02:17:16;;;;;;;13.38;5.43;;;2.40;99.90;;;;;;5068684;28;20697;-72
2022/01/21 02:23:08;;;;;;;12.10;4.07;;;2.50;99.90;;;;;;5069338;28;20204;-73
2022/01/21 02:25:53;;;;;;;14.02;4.63;;;2.60;99.90;;;;;;5069958;28;20558;-74
2022/01/21 02:28:42;;;;;;;11.75;4.45;;;2.70;99.90;;;;;;5065352;28;20208;-73
2022/01/21 02:31:28;;;;;;;8.88;4.35;;;2.60;99.90;;;;;;5066677;28;20571;-74
2022/01/21 02:34:14;;;;;;;8.43;4.78;;;2.60;99.90;;;;;;5068155;28;20599;-73
2022/01/21 02:36:59;;;;;;;12.40;4.65;;;2.70;99.90;;;;;;5068187;28;20211;-73
2022/01/21 02:39:47;;;;;;;14.73;4.80;;;2.70;99.90;;;;;;5071128;28;20566;-74
2022/01/21 02:42:33;;;;;;;16.50;4.90;;;2.70;99.90;;;;;;5069893;28;20247;-73
2022/01/21 02:45:19;;;;;;;22.08;4.50;;;2.70;99.90;;;;;;5067773;28;20293;-73
2022/01/21 02:48:07;;;;;;;12.05;4.30;;;2.70;99.90;;;;;;5069346;28;20207;-73
2022/01/21 02:50:53;;;;;;;16.85;5.00;;;2.70;99.90;;;;;;5067555;28;20282;-73
2022/01/21 02:54:04;;;;;;;12.88;4.50;;;2.70;99.90;;;;;;5070260;28;20219;-73
2022/01/21 02:56:49;;;;;;;26.90;5.28;;;2.70;99.90;;;;;;5052303;28;20197;-73
2022/01/21 02:59:35;;;;;;;14.32;5.93;;;2.70;99.90;;;;;;5051656;28;20315;-73
2022/01/21 03:02:20;;;;;;;10.98;5.70;;;2.70;99.90;;;;;;5051918;28;20224;-73
2022/01/21 03:05:13;;;;;;;8.50;4.88;;;2.80;99.90;;;;;;5067446;28;20298;-73
2022/01/21 03:07:58;;;;;;;12.38;5.55;;;2.90;99.90;;;;;;5070576;28;20212;-73
2022/01/21 03:10:44;;;;;;;13.10;5.53;;;2.90;99.90;;;;;;5065633;28;20224;-73
2022/01/21 03:13:31;;;;;;;14.77;5.10;;;3.00;99.90;;;;;;5060991;28;20285;-73
2022/01/21 03:16:17;;;;;;;13.45;5.32;;;3.00;99.90;;;;;;5068804;28;20208;-72
2022/01/21 03:19:02;;;;;;;14.90;5.00;;;3.10;99.90;;;;;;5064251;28;20632;-74
2022/01/21 03:21:48;;;;;;;15.10;5.50;;;3.20;99.90;;;;;;5068625;28;20232;-73
2022/01/21 03:24:34;;;;;;;11.27;5.30;;;3.10;99.90;;;;;;5060015;28;20240;-73
2022/01/21 03:27:19;;;;;;;11.45;5.07;;;3.00;99.90;;;;;;5070322;28;20211;-72
2022/01/21 03:30:09;;;;;;;13.77;5.05;;;3.10;99.90;;;;;;5068720;28;20199;-72
2022/01/21 03:32:55;;;;;;;12.75;5.13;;;3.00;99.90;;;;;;5069225;28;20200;-72
2022/01/21 03:35:41;;;;;;;18.70;5.20;;;3.00;99.90;;;;;;5063745;28;20666;-72
2022/01/21 03:38:27;;;;;;;13.55;5.03;;;2.90;99.90;;;;;;5064093;28;20204;-73
2022/01/21 03:41:13;;;;;;;14.07;5.20;;;2.90;99.90;;;;;;5069082;28;20694;-73
2022/01/21 03:43:58;;;;;;;18.75;5.65;;;2.90;99.90;;;;;;5063192;28;20285;-73
2022/01/21 03:46:45;;;;;;;9.88;4.63;;;2.90;99.90;;;;;;5068877;28;20203;-73
2022/01/21 03:49:37;;;;;;;14.40;5.88;;;2.90;99.90;;;;;;5066428;28;20726;-72
2022/01/21 03:52:23;;;;;;;17.15;6.90;;;2.90;99.90;;;;;;5067180;28;20324;-72
2022/01/21 03:55:10;;;;;;;15.40;5.82;;;2.80;99.90;;;;;;5062872;28;20236;-73
2022/01/21 03:57:55;;;;;;;11.25;5.47;;;2.80;99.90;;;;;;5067894;28;20200;-73
2022/01/21 04:00:44;;;;;;;11.73;5.00;;;2.80;99.90;;;;;;5067135;28;20230;-73
2022/01/21 04:03:31;;;;;;;10.05;5.85;;;2.70;99.90;;;;;;5062046;28;20525;-72
2022/01/21 04:06:17;;;;;;;12.65;5.82;;;2.70;99.90;;;;;;5068669;28;20219;-73
2022/01/21 04:09:03;;;;;;;19.48;5.93;;;2.70;99.90;;;;;;5067500;28;20219;-73
2022/01/21 04:11:48;;;;;;;7.50;4.82;;;2.70;99.90;;;;;;5069950;28;20219;-72
2022/01/21 04:14:34;;;;;;;12.98;6.05;;;2.70;99.90;;;;;;5065432;28;20220;-72
2022/01/21 04:17:20;;;;;;;20.00;5.40;;;2.80;99.90;;;;;;5059242;28;20330;-73
2022/01/21 04:20:09;;;;;;;18.05;5.70;;;2.70;99.90;;;;;;5065516;28;20282;-73
2022/01/21 04:22:54;;;;;;;15.07;5.50;;;2.60;99.90;;;;;;5063637;28;20306;-72
2022/01/21 04:25:40;;;;;;;12.73;6.35;;;2.70;99.90;;;;;;5063301;28;20688;-73
2022/01/21 04:28:26;;;;;;;18.08;6.63;;;2.60;99.90;;;;;;5067347;28;20689;-73
2022/01/21 04:31:11;;;;;;;11.80;5.85;;;2.70;99.90;;;;;;5068850;28;20204;-73
2022/01/21 04:33:57;;;;;;;16.40;6.93;;;2.70;99.90;;;;;;5063492;28;20274;-73
2022/01/21 04:36:44;;;;;;;11.23;5.35;;;2.90;99.90;;;;;;5064594;28;20220;-73
2022/01/21 04:39:35;;;;;;;18.40;5.85;;;2.90;99.90;;;;;;5066864;28;20274;-73
2022/01/21 04:48:28;;;;;;;12.60;5.50;;;3.10;99.90;;;;;;5065307;28;20703;-73
2022/01/21 04:51:16;;;;;;;13.80;5.78;;;3.10;99.90;;;;;;5072039;28;20201;-73
2022/01/21 04:54:03;;;;;;;14.02;5.15;;;3.10;99.90;;;;;;5068921;28;20227;-72
2022/01/21 04:56:48;;;;;;;20.23;6.00;;;3.10;99.90;;;;;;5068536;28;20211;-74
2022/01/21 04:59:36;;;;;;;19.75;5.80;;;3.00;99.90;;;;;;5065890;28;20211;-73
2022/01/21 05:02:22;;;;;;;18.02;6.55;;;3.00;99.90;;;;;;5069475;28;20228;-72
2022/01/21 05:05:09;;;;;;;14.48;7.15;;;2.90;99.90;;;;;;5072448;28;20325;-73
2022/01/21 05:07:57;;;;;;;21.60;5.28;;;2.90;99.90;;;;;;5071885;28;20310;-73
2022/01/21 05:10:44;;;;;;;11.57;5.85;;;3.00;99.90;;;;;;5072653;28;20593;-73
2022/01/21 05:13:37;;;;;;;11.73;6.80;;;3.00;99.90;;;;;;5062689;28;20298;-73
2022/01/21 05:16:33;;;;;;;18.90;7.18;;;3.00;99.90;;;;;;5072549;28;20200;-73
2022/01/21 05:19:20;;;;;;;14.90;5.30;;;2.90;99.90;;;;;;5070007;28;20205;-73
2022/01/21 05:22:05;;;;;;;19.45;6.25;;;2.90;99.90;;;;;;5068774;28;20384;-73
2022/01/21 05:24:51;;;;;;;11.75;4.85;;;3.00;99.90;;;;;;5070892;28;20309;-73
2022/01/21 05:27:38;;;;;;;13.43;6.05;;;3.10;99.90;;;;;;5069972;28;20568;-72
2022/01/21 05:30:24;;;;;;;20.58;5.82;;;3.10;99.90;;;;;;5063509;28;20733;-73
2022/01/21 05:33:10;;;;;;;10.00;5.75;;;3.10;99.90;;;;;;5066101;28;20238;-74
2022/01/21 05:35:55;;;;;;;17.25;5.20;;;3.20;99.90;;;;;;5068963;28;20689;-73
2022/01/21 05:38:41;;;;;;;22.88;6.18;;;3.20;99.90;;;;;;5070848;28;20769;-73
2022/01/21 05:41:27;;;;;;;11.55;5.50;;;3.10;99.90;;;;;;5069698;28;20208;-73
2022/01/21 05:44:20;;;;;;;14.73;6.00;;;3.20;99.90;;;;;;5069376;28;20228;-73
2022/01/21 05:47:07;;;;;;;11.88;6.30;;;3.20;99.90;;;;;;5067004;28;20199;-73
2022/01/21 05:49:53;;;;;;;12.73;5.20;;;3.30;99.90;;;;;;5068755;28;20291;-72
2022/01/21 05:52:42;;;;;;;18.65;6.57;;;3.20;99.90;;;;;;5065302;28;20258;-74
2022/01/21 05:55:27;;;;;;;17.85;6.40;;;3.20;99.90;;;;;;5067728;28;20804;-71
2022/01/21 05:58:13;;;;;;;16.30;6.30;;;3.20;99.90;;;;;;5071791;28;20212;-73
2022/01/21 06:01:01;;;;;;;18.75;6.68;;;3.20;99.90;;;;;;5070594;28;20211;-72
2022/01/21 06:03:46;;;;;;;15.07;6.43;;;3.30;99.90;;;;;;5067557;28;20728;-72
2022/01/21 06:06:32;;;;;;;16.23;6.57;;;3.20;99.90;;;;;;5068054;28;20204;-72
2022/01/21 06:09:17;;;;;;;12.90;6.60;;;3.30;99.90;;;;;;5071693;28;20204;-72
2022/01/21 06:12:04;;;;;;;15.70;6.25;;;3.30;99.90;;;;;;5068428;28;20212;-73
2022/01/21 06:14:50;;;;;;;15.57;6.50;;;3.30;99.90;;;;;;5066147;28;20602;-72
2022/01/21 06:17:37;;;;;;;17.63;6.07;;;3.30;99.90;;;;;;5067059;28;20208;-73
2022/01/21 06:20:22;;;;;;;15.63;6.22;;;3.30;99.90;;;;;;5068822;28;20203;-75
2022/01/21 06:23:08;;;;;;;15.88;6.28;;;3.20;99.90;;;;;;5065680;28;20247;-71
2022/01/21 06:25:54;;;;;;;13.63;6.65;;;3.30;99.90;;;;;;5066830;28;20192;-73
2022/01/21 06:28:40;;;;;;;13.00;7.03;;;3.30;99.90;;;;;;5064936;28;20203;-71
2022/01/21 06:31:25;;;;;;;11.25;5.50;;;3.10;99.90;;;;;;5062171;28;20203;-73
2022/01/21 06:34:12;;;;;;;15.35;6.50;;;3.10;99.90;;;;;;5070616;28;20231;-73
2022/01/21 06:36:58;;;;;;;14.57;6.10;;;3.20;99.90;;;;;;5070140;28;20204;-73
2022/01/21 06:39:44;;;;;;;12.60;6.70;;;3.20;99.90;;;;;;5071872;28;20211;-73
2022/01/21 06:42:30;;;;;;;17.02;6.65;;;3.10;99.90;;;;;;5065981;28;20377;-73
2022/01/21 06:45:16;;;;;;;11.18;6.70;;;3.00;99.90;;;;;;5066383;28;20223;-73
2022/01/21 06:48:02;;;;;;;17.77;7.75;;;2.90;99.90;;;;;;5066256;28;20723;-73
2022/01/21 06:50:49;;;;;;;21.73;8.13;;;2.80;99.90;;;;;;5070091;28;20196;-73
2022/01/21 06:53:35;;;;;;;12.27;7.88;;;2.70;99.90;;;;;;5070051;28;20550;-73
2022/01/21 06:56:21;;;;;;;13.23;8.07;;;2.60;99.90;;;;;;5058674;28;20200;-73
2022/01/21 06:59:06;;;;;;;23.17;9.18;;;2.50;99.90;;;;;;5069461;28;20199;-73
2022/01/21 07:01:52;;;;;;;18.20;10.43;;;2.40;99.90;;;;;;5062841;28;20224;-73
2022/01/21 07:04:38;;;;;;;20.88;9.23;;;2.50;99.90;;;;;;5070518;28;20232;-73
2022/01/21 07:07:24;;;;;;;35.95;17.58;;;2.30;99.90;;;;;;5068512;28;20212;-73
2022/01/21 07:10:12;;;;;;;65.32;28.00;;;2.40;99.90;;;;;;5070171;28;20263;-73
2022/01/21 07:12:58;;;;;;;29.00;13.40;;;2.30;99.90;;;;;;5061624;28;20266;-73
2022/01/21 07:15:44;;;;;;;13.25;9.07;;;2.20;99.90;;;;;;5071526;28;20579;-73
2022/01/21 07:18:30;;;;;;;16.77;7.10;;;2.10;99.90;;;;;;5066144;28;20700;-73
2022/01/21 07:21:16;;;;;;;22.90;11.50;;;2.10;99.90;;;;;;5064395;28;20207;-73
2022/01/21 07:24:03;;;;;;;22.45;10.18;;;2.10;99.90;;;;;;5070093;28;20313;-73
2022/01/21 07:26:49;;;;;;;29.83;10.45;;;2.30;99.90;;;;;;5070761;28;20266;-73
2022/01/21 07:29:34;;;;;;;17.33;8.93;;;2.30;99.90;;;;;;5064408;28;20689;-73
2022/01/21 07:32:20;;;;;;;16.85;8.30;;;2.30;99.90;;;;;;5065404;28;20708;-72
2022/01/21 07:35:07;;;;;;;26.08;11.35;;;2.40;99.90;;;;;;5071351;28;20228;-72
2022/01/21 07:37:52;;;;;;;17.98;9.75;;;2.30;99.90;;;;;;5067450;28;20208;-72
2022/01/21 07:40:39;;;;;;;23.20;10.45;;;2.40;99.90;;;;;;5065033;28;20204;-73
2022/01/21 07:43:25;;;;;;;42.42;19.17;;;2.40;99.90;;;;;;5061985;28;20322;-73
2022/01/21 07:46:10;;;;;;;29.30;13.55;;;2.40;99.90;;;;;;5067231;28;20851;-72
2022/01/21 07:48:59;;;;;;;27.10;13.68;;;2.50;99.90;;;;;;5066495;28;20200;-73
2022/01/21 07:51:45;;;;;;;23.58;9.82;;;2.50;99.90;;;;;;5066937;28;20196;-73
2022/01/21 07:54:31;;;;;;;28.30;10.70;;;2.60;99.90;;;;;;5063894;28;20223;-72
2022/01/21 07:57:18;;;;;;;24.02;8.95;;;2.70;99.90;;;;;;5068023;28;20570;-72
2022/01/21 08:00:05;;;;;;;17.42;9.30;;;2.70;99.90;;;;;;5068974;28;20274;-72
2022/01/21 08:02:51;;;;;;;51.20;21.83;;;2.80;99.90;;;;;;5068168;28;20227;-72
2022/01/21 08:05:36;;;;;;;35.20;14.15;;;2.70;99.90;;;;;;5071011;28;20624;-72
2022/01/21 08:08:24;;;;;;;33.40;16.73;;;2.60;99.90;;;;;;5057349;28;20199;-72
2022/01/21 08:11:09;;;;;;;25.90;11.88;;;2.60;99.90;;;;;;5066045;28;20231;-72
2022/01/21 08:13:56;;;;;;;27.77;11.50;;;2.70;99.90;;;;;;5066794;28;20829;-72
2022/01/21 08:16:42;;;;;;;25.42;10.93;;;2.70;99.90;;;;;;5073151;28;20247;-72
2022/01/21 08:19:27;;;;;;;32.40;12.75;;;2.70;99.90;;;;;;5067858;28;20813;-73
2022/01/21 08:22:13;;;;;;;23.02;10.93;;;2.70;99.90;;;;;;5064979;28;20667;-73
2022/01/21 08:24:59;;;;;;;18.48;9.82;;;2.70;99.90;;;;;;5072933;28;20240;-73
2022/01/21 08:27:45;;;;;;;26.30;10.55;;;2.90;99.90;;;;;;5071916;28;20211;-72
2022/01/21 08:30:32;;;;;;;21.65;10.48;;;3.00;99.90;;;;;;5065261;28;20271;-73
2022/01/21 08:33:18;;;;;;;25.60;9.88;;;3.00;99.90;;;;;;5072025;28;20204;-72
2022/01/21 08:36:04;;;;;;;14.68;8.80;;;3.00;99.90;;;;;;5073768;28;20204;-72
2022/01/21 08:38:50;;;;;;;20.38;10.50;;;3.10;99.90;;;;;;5072822;28;20203;-72
2022/01/21 08:41:35;;;;;;;21.30;10.23;;;3.00;99.90;;;;;;5061706;28;20199;-72
2022/01/21 08:44:21;;;;;;;20.55;8.15;;;3.10;99.90;;;;;;5068992;28;20228;-72
2022/01/21 08:47:09;;;;;;;23.08;9.15;;;3.10;99.90;;;;;;5072918;28;20212;-72
2022/01/21 08:49:56;;;;;;;22.15;9.38;;;3.00;99.90;;;;;;5070669;28;20307;-72
2022/01/21 08:52:42;;;;;;;18.40;10.00;;;3.00;99.90;;;;;;5067979;28;20275;-72
2022/01/21 08:55:27;;;;;;;33.50;10.10;;;3.00;99.90;;;;;;5073052;28;20298;-72
2022/01/21 08:58:13;;;;;;;18.88;8.73;;;3.10;99.90;;;;;;5070036;28;20199;-72
2022/01/21 09:00:59;;;;;;;23.60;9.65;;;3.20;99.90;;;;;;5071291;28;20227;-73
2022/01/21 09:03:46;;;;;;;16.80;8.40;;;3.10;99.90;;;;;;5072107;28;20235;-72
2022/01/21 09:06:32;;;;;;;21.20;9.00;;;3.10;99.90;;;;;;5072285;28;20282;-72
2022/01/21 09:09:18;;;;;;;20.33;9.88;;;3.20;99.90;;;;;;5072567;28;20212;-73
2022/01/21 09:12:04;;;;;;;24.63;8.80;;;3.20;99.90;;;;;;5068401;28;20716;-72
2022/01/21 09:14:50;;;;;;;20.55;9.32;;;3.30;99.90;;;;;;5070670;28;20232;-72
2022/01/21 09:17:37;;;;;;;16.67;9.15;;;3.40;99.90;;;;;;5066835;28;20208;-73
2022/01/21 09:20:24;;;;;;;18.23;8.00;;;3.50;99.90;;;;;;5063682;28;20204;-73
2022/01/21 09:23:09;;;;;;;21.00;8.75;;;3.50;99.90;;;;;;5072782;28;20232;-73
2022/01/21 09:25:55;;;;;;;24.95;8.77;;;3.40;99.90;;;;;;5071204;28;20843;-73
2022/01/21 09:28:41;;;;;;;23.75;8.25;;;3.40;99.90;;;;;;5070283;28;20671;-73
2022/01/21 09:31:26;;;;;;;22.45;7.35;;;3.50;99.90;;;;;;5066896;28;20208;-73
2022/01/21 09:34:12;;;;;;;24.40;9.95;;;3.40;99.90;;;;;;5070054;28;20243;-72
2022/01/21 09:37:01;;;;;;;27.77;8.57;;;3.50;99.90;;;;;;5072835;28;20208;-73
2022/01/21 09:39:47;;;;;;;22.65;8.52;;;3.50;99.90;;;;;;5068963;28;20200;-74
2022/01/21 09:42:34;;;;;;;21.90;8.00;;;3.50;99.90;;;;;;5069213;28;20574;-73
2022/01/21 09:45:22;;;;;;;24.35;7.53;;;3.50;99.90;;;;;;5062946;28;20301;-72
2022/01/21 09:48:10;;;;;;;16.27;7.60;;;3.50;99.90;;;;;;5072724;28;20223;-72
2022/01/21 09:50:58;;;;;;;18.50;8.90;;;3.50;99.90;;;;;;5070144;28;20662;-72
2022/01/21 09:53:46;;;;;;;19.05;8.07;;;3.50;99.90;;;;;;5068284;28;20263;-72
2022/01/21 09:56:34;;;;;;;16.17;6.72;;;3.60;99.90;;;;;;5063103;28;20204;-72
2022/01/21 09:59:23;;;;;;;22.02;8.02;;;3.60;99.90;;;;;;5061056;28;20203;-72
2022/01/21 10:02:10;;;;;;;21.00;6.35;;;3.70;99.90;;;;;;5069180;28;20208;-72
2022/01/21 10:04:58;;;;;;;14.75;6.50;;;3.60;99.90;;;;;;5073675;28;20220;-72
2022/01/21 10:07:47;;;;;;;17.88;7.28;;;3.60;99.90;;;;;;5070033;28;20204;-72
2022/01/21 10:10:34;;;;;;;16.17;6.40;;;3.70;99.90;;;;;;5058830;28;20286;-72
2022/01/21 10:13:21;;;;;;;11.48;6.00;;;3.80;99.90;;;;;;5071709;28;20216;-72
2022/01/21 10:16:09;;;;;;;17.55;6.85;;;3.80;99.90;;;;;;5069177;28;20213;-72
2022/01/21 10:19:02;;;;;;;22.42;7.47;;;4.00;99.90;;;;;;5065815;28;20196;-70
2022/01/21 10:21:56;;;;;;;14.88;7.55;;;4.00;99.90;;;;;;5065757;28;20208;-73
2022/01/21 10:24:52;;;;;;;21.88;7.78;;;4.00;99.90;;;;;;5069480;28;20224;-73
2022/01/21 10:27:39;;;;;;;13.80;7.10;;;4.00;99.90;;;;;;5068969;28;20200;-72
2022/01/21 10:30:28;;;;;;;20.90;8.20;;;4.10;99.90;;;;;;5066561;28;20235;-72
2022/01/21 10:33:23;;;;;;;22.83;8.43;;;4.10;99.90;;;;;;5071531;28;20212;-73
2022/01/21 10:36:15;;;;;;;22.63;8.68;;;4.10;99.90;;;;;;5072405;28;20327;-73
2022/01/21 10:39:09;;;;;;;22.77;7.10;;;4.20;99.90;;;;;;5066483;28;20207;-72
2022/01/21 10:41:56;;;;;;;21.60;7.43;;;4.10;99.90;;;;;;5058522;28;20185;-73
2022/01/21 10:44:49;;;;;;;16.77;6.40;;;4.20;99.90;;;;;;5072089;28;20347;-73
2022/01/21 10:47:36;;;;;;;21.23;6.13;;;4.10;99.90;;;;;;5072085;28;20181;-72
2022/01/21 10:50:24;;;;;;;10.88;6.70;;;4.00;99.90;;;;;;5069496;28;20204;-73
2022/01/21 10:53:26;;;;;;;17.45;6.35;;;4.10;99.90;;;;;;5066969;28;20196;-72
2022/01/21 10:56:15;;;;;;;15.20;5.95;;;4.10;99.90;;;;;;5069372;28;20231;-72
2022/01/21 10:59:01;;;;;;;13.05;5.75;;;4.00;99.90;;;;;;5065054;28;20599;-72
2022/01/21 11:01:59;;;;;;;17.23;6.70;;;4.00;99.90;;;;;;5051627;28;20193;-72
2022/01/21 11:04:45;;;;;;;22.83;8.25;;;3.90;99.90;;;;;;5068893;28;20335;-72
2022/01/21 11:07:45;;;;;;;22.02;6.28;;;3.90;99.90;;;;;;5051502;28;20324;-72
2022/01/21 11:10:46;;;;;;;21.38;8.10;;;3.80;99.90;;;;;;5052903;28;20205;-72
2022/01/21 11:13:37;;;;;;;16.55;8.77;;;3.90;99.90;;;;;;5051605;28;20219;-73
2022/01/21 11:16:25;;;;;;;23.95;9.27;;;4.10;99.90;;;;;;5056354;28;20217;-73
2022/01/21 11:19:13;;;;;;;20.38;8.20;;;4.20;99.90;;;;;;5061166;28;20208;-73
2022/01/21 11:22:04;;;;;;;22.35;9.27;;;4.10;99.90;;;;;;5068601;28;20323;-73
2022/01/21 11:24:50;;;;;;;18.33;8.00;;;4.00;99.90;;;;;;5069680;28;20350;-73
2022/01/21 11:27:36;;;;;;;19.88;9.50;;;4.00;99.90;;;;;;5061809;28;20212;-73
2022/01/21 11:30:21;;;;;;;20.40;9.20;;;4.00;99.90;;;;;;5064874;28;20278;-73
2022/01/21 11:33:07;;;;;;;19.35;8.95;;;4.00;99.90;;;;;;5069008;28;20226;-73
2022/01/21 11:35:54;;;;;;;44.30;27.00;;;4.00;99.90;;;;;;5069766;28;20291;-72
2022/01/21 11:38:44;;;;;;;16.45;9.60;;;3.90;99.90;;;;;;5062331;28;20203;-72
2022/01/21 11:41:30;;;;;;;23.83;10.35;;;3.90;99.90;;;;;;5068421;28;20212;-72
2022/01/21 11:44:20;;;;;;;30.65;12.32;;;3.90;99.90;;;;;;5071524;28;20230;-72
2022/01/21 11:47:27;;;;;;;21.73;8.75;;;3.90;99.90;;;;;;5069046;28;20193;-72
2022/01/21 11:50:13;;;;;;;16.45;10.98;;;3.90;99.90;;;;;;5070387;28;20212;-72
2022/01/21 11:53:00;;;;;;;24.27;11.05;;;3.90;99.90;;;;;;5070938;28;20266;-72
2022/01/21 11:55:47;;;;;;;25.42;11.60;;;3.90;99.90;;;;;;5071101;28;20193;-73
2022/01/21 11:58:32;;;;;;;19.55;9.43;;;4.00;99.90;;;;;;5065573;28;20204;-72
2022/01/21 12:01:34;;;;;;;32.65;13.63;;;4.10;99.90;;;;;;5074950;28;20203;-73
2022/01/21 12:04:40;;;;;;;29.92;11.63;;;4.20;99.90;;;;;;5073709;28;20239;-73
2022/01/21 12:07:57;;;;;;;21.70;9.23;;;4.30;99.90;;;;;;5071983;28;20271;-72
2022/01/21 12:10:45;;;;;;;32.03;10.02;;;4.40;99.90;;;;;;5068617;28;20250;-73
2022/01/21 12:13:32;;;;;;;21.30;7.93;;;4.50;99.90;;;;;;5069632;28;20213;-72
2022/01/21 12:16:25;;;;;;;21.17;9.02;;;4.50;99.90;;;;;;5073885;28;20803;-73
2022/01/21 12:19:25;;;;;;;22.83;7.82;;;4.40;99.90;;;;;;5066534;28;20208;-73
2022/01/21 12:22:13;;;;;;;19.65;8.80;;;4.40;99.90;;;;;;5075186;28;20211;-72
2022/01/21 12:25:08;;;;;;;18.85;8.52;;;4.50;99.90;;;;;;5080102;22;20227;-86
2022/01/21 12:28:17;;;;;;;19.33;7.68;;;4.50;99.90;;;;;;5072711;28;20200;-86
2022/01/21 12:31:04;;;;;;;27.83;10.73;;;4.60;99.90;;;;;;5075997;28;20219;-86
2022/01/21 12:34:03;;;;;;;21.52;8.65;;;4.70;99.90;;;;;;5070410;28;20227;-85
2022/01/21 12:36:51;;;;;;;22.73;8.50;;;4.70;99.90;;;;;;5059328;28;20203;-86
2022/01/21 12:39:42;;;;;;;20.00;8.00;;;4.70;99.90;;;;;;5063551;28;20205;-86
2022/01/21 12:42:35;;;;;;;12.25;6.53;;;4.70;99.90;;;;;;5063939;28;20436;-87
2022/01/21 12:45:26;;;;;;;24.85;8.65;;;4.70;99.90;;;;;;5062416;28;20268;-86
2022/01/21 12:48:32;;;;;;;19.00;6.53;;;4.80;99.90;;;;;;5059637;28;20677;-86
2022/01/21 12:51:31;;;;;;;26.33;11.02;;;4.80;99.90;;;;;;5057507;28;20199;-87
2022/01/21 12:57:21;;;;;;;18.77;7.90;;;4.90;99.90;;;;;;5059498;28;20240;-87
2022/01/21 13:00:09;;;;;;;57.30;13.23;;;5.00;99.90;;;;;;5055194;28;20582;-86
2022/01/21 13:03:04;;;;;;;24.85;13.90;;;5.10;99.90;;;;;;5067904;28;20270;-87
2022/01/21 13:06:01;;;;;;;25.17;9.40;;;5.10;99.90;;;;;;5053545;28;20293;-85
2022/01/21 13:09:02;;;;;;;19.60;8.95;;;5.00;99.90;;;;;;5060500;28;20271;-86
2022/01/21 13:11:54;;;;;;;17.25;6.95;;;4.90;99.90;;;;;;5064028;28;20277;-85
2022/01/21 13:14:45;;;;;;;18.30;7.10;;;5.00;99.90;;;;;;5059218;28;20200;-85
2022/01/21 13:17:31;;;;;;;14.10;6.85;;;5.00;99.90;;;;;;5050735;28;20200;-86
2022/01/21 13:20:29;;;;;;;17.05;6.00;;;5.00;99.90;;;;;;5068415;28;20332;-86
2022/01/21 13:23:33;;;;;;;9.98;6.40;;;4.90;99.90;;;;;;5071776;28;20221;-85
2022/01/21 13:26:20;;;;;;;12.23;4.68;;;5.00;99.90;;;;;;5063219;28;20294;-86
2022/01/21 13:29:08;;;;;;;13.75;5.70;;;5.20;99.90;;;;;;5050277;28;20197;-86
2022/01/21 13:31:56;;;;;;;8.63;3.65;;;5.70;99.90;;;;;;5073272;28;20201;-86
2022/01/21 13:34:42;;;;;;;8.55;4.35;;;6.20;99.90;;;;;;5082661;22;20776;-72
2022/01/21 13:37:29;;;;;;;14.32;3.55;;;6.80;99.90;;;;;;5060981;28;20685;-72
2022/01/21 13:40:20;;;;;;;7.68;2.60;;;7.70;99.90;;;;;;5073561;28;20409;-70
2022/01/21 13:43:08;;;;;;;6.53;3.00;;;8.50;99.90;;;;;;5060710;28;20693;-69
2022/01/21 13:45:59;;;;;;;8.80;2.63;;;9.20;95.60;;;;;;5069203;28;20294;-68
2022/01/21 13:48:45;;;;;;;7.93;2.67;;;10.10;81.90;;;;;;5067289;28;20577;-70
2022/01/21 13:51:31;;;;;;;4.40;3.13;;;10.10;74.40;;;;;;5064550;28;20537;-69
2022/01/21 13:54:18;;;;;;;13.50;2.60;;;9.80;76.50;;;;;;5066175;28;20447;-69
2022/01/21 13:57:06;;;;;;;6.87;2.80;;;9.10;78.30;;;;;;5064427;28;20447;-69
2022/01/21 13:59:52;;;;;;;7.80;2.50;;;8.40;86.00;;;;;;5068293;28;20471;-69
2022/01/21 14:02:37;;;;;;;9.03;2.50;;;7.70;90.50;;;;;;5062175;28;20497;-69
2022/01/21 14:05:23;;;;;;;3.77;1.70;;;7.40;94.50;;;;;;5067530;28;20543;-69
2022/01/21 14:08:11;;;;;;;8.20;2.17;;;7.20;97.70;;;;;;5065360;28;20446;-69
2022/01/21 14:11:00;;;;;;;8.43;2.50;;;6.80;98.50;;;;;;5069732;28;20462;-70
2022/01/21 14:13:48;;;;;;;8.23;1.98;;;6.40;99.90;;;;;;5069880;28;20268;-69
2022/01/21 14:16:36;;;;;;;9.13;2.25;;;6.10;99.90;;;;;;5060769;28;20235;-70
2022/01/21 14:19:25;;;;;;;7.90;2.25;;;6.00;99.90;;;;;;5062484;28;20243;-69
2022/01/21 14:22:12;;;;;;;6.25;2.20;;;5.90;99.90;;;;;;5064872;28;20196;-70
2022/01/21 14:24:58;;;;;;;7.32;2.53;;;5.80;99.90;;;;;;5067484;28;20227;-70
2022/01/21 14:27:49;;;;;;;5.25;2.20;;;5.80;99.90;;;;;;5066833;28;20246;-71
2022/01/21 14:30:41;;;;;;;6.72;1.90;;;5.70;99.90;;;;;;5060038;28;20196;-71
2022/01/21 14:33:39;;;;;;;24.73;12.05;;;5.60;99.90;;;;;;5065083;28;20748;-70
2022/01/21 14:36:25;;;;;;;16.58;5.25;;;5.60;99.90;;;;;;5063839;28;20858;-71
2022/01/21 14:39:16;;;;;;;48.67;15.52;;;5.50;99.90;;;;;;5069898;28;20211;-71
2022/01/21 14:42:04;;;;;;;15.40;4.75;;;5.50;99.90;;;;;;5071932;28;20242;-71
2022/01/21 14:44:53;;;;;;;17.10;9.27;;;5.50;99.90;;;;;;5067867;28;20226;-71
2022/01/21 14:47:39;;;;;;;4.43;2.25;;;5.50;99.90;;;;;;5053566;28;20447;-70
2022/01/21 14:50:27;;;;;;;3.95;2.80;;;5.40;99.90;;;;;;5052265;28;20343;-71
2022/01/21 14:53:14;;;;;;;6.63;3.30;;;5.30;99.90;;;;;;5051985;28;20188;-71
2022/01/21 14:56:00;;;;;;;6.00;3.28;;;5.20;99.90;;;;;;5054538;28;21118;-71
2022/01/21 14:58:46;;;;;;;9.75;3.13;;;5.20;99.90;;;;;;5069142;28;20291;-71
2022/01/21 15:01:33;;;;;;;5.25;3.38;;;5.20;99.90;;;;;;5052113;28;20200;-71
2022/01/21 15:04:19;;;;;;;11.10;4.43;;;5.30;99.90;;;;;;5065034;28;20212;-71
2022/01/21 15:07:12;;;;;;;19.20;8.20;;;5.30;99.90;;;;;;5056961;28;20216;-71
2022/01/21 15:10:02;;;;;;;8.73;4.47;;;5.30;99.90;;;;;;5051825;28;20400;-71
2022/01/21 15:15:53;;;;;;;19.08;8.60;;;5.20;99.90;;;;;;5065861;28;20243;-71
2022/01/21 15:18:40;;;;;;;23.42;9.80;;;5.20;99.90;;;;;;5056024;28;20262;-71